createdAt,value
2018-10-03T00:01:50.917Z,9.55
2018-10-03T00:04:21.190Z,9.53
2018-10-03T00:06:51.693Z,9.53
2018-10-03T00:09:22.085Z,9.56
2018-10-03T00:11:52.466Z,9.57
2018-10-03T00:14:22.828Z,9.60
2018-10-03T00:16:53.575Z,9.59
2018-10-03T00:19:23.896Z,9.55
2018-10-03T00:21:54.396Z,9.47
2018-10-03T00:24:25.022Z,9.50
2018-10-03T00:26:55.452Z,9.46
2018-10-03T00:29:25.931Z,9.38
2018-10-03T00:31:56.303Z,9.43
2018-10-03T00:34:26.796Z,9.41
2018-10-03T00:36:57.369Z,9.34
2018-10-03T00:39:27.984Z,9.23
2018-10-03T00:41:58.372Z,9.24
2018-10-03T00:44:28.675Z,9.29
2018-10-03T00:46:59.289Z,9.37
2018-10-03T00:49:29.576Z,9.22
2018-10-03T00:52:00.637Z,9.26
2018-10-03T00:54:31.136Z,9.30
2018-10-03T00:57:01.536Z,9.28
2018-10-03T00:59:31.712Z,9.31
2018-10-03T01:02:02.576Z,9.18
2018-10-03T01:04:32.998Z,9.20
2018-10-03T01:07:03.962Z,9.22
2018-10-03T01:09:34.379Z,9.29
2018-10-03T01:12:04.852Z,9.21
2018-10-03T01:14:35.208Z,9.18
2018-10-03T01:17:05.715Z,9.29
2018-10-03T01:19:36.172Z,9.25
2018-10-03T01:22:06.653Z,9.21
2018-10-03T01:24:36.956Z,9.25
2018-10-03T01:27:07.523Z,9.27
2018-10-03T01:29:37.790Z,9.19
2018-10-03T01:32:08.460Z,9.19
2018-10-03T01:34:38.783Z,9.18
2018-10-03T01:37:09.035Z,9.20
2018-10-03T01:39:39.304Z,9.07
2018-10-03T01:42:10.089Z,9.12
2018-10-03T01:44:40.460Z,9.01
2018-10-03T01:47:10.979Z,9.11
2018-10-03T01:49:41.464Z,9.03
2018-10-03T01:52:11.727Z,8.99
2018-10-03T01:54:42.097Z,8.99
2018-10-03T01:57:12.683Z,9.08
2018-10-03T01:59:43.055Z,9.11
2018-10-03T02:02:13.435Z,9.11
2018-10-03T02:04:43.814Z,9.19
2018-10-03T02:07:14.212Z,9.05
2018-10-03T02:09:44.504Z,9.17
2018-10-03T02:12:14.729Z,9.15
2018-10-03T02:14:45.080Z,9.14
2018-10-03T02:17:15.499Z,9.17
2018-10-03T02:19:45.921Z,9.27
2018-10-03T02:22:16.323Z,9.32
2018-10-03T02:24:46.652Z,9.24
2018-10-03T02:27:17.189Z,9.19
2018-10-03T02:29:47.522Z,9.24
2018-10-03T02:32:18.075Z,9.28
2018-10-03T02:34:48.623Z,9.19
2018-10-03T02:37:19.031Z,9.23
2018-10-03T02:39:49.253Z,9.15
2018-10-03T02:42:19.650Z,9.23
2018-10-03T02:44:50.122Z,9.19
2018-10-03T02:47:20.580Z,9.19
2018-10-03T02:49:50.845Z,9.17
2018-10-03T02:52:21.248Z,9.20
2018-10-03T02:54:51.703Z,9.20
2018-10-03T02:57:22.214Z,9.13
2018-10-03T02:59:52.799Z,9.12
2018-10-03T03:02:23.191Z,9.21
2018-10-03T03:04:53.431Z,9.29
2018-10-03T03:07:23.894Z,9.20
2018-10-03T03:09:54.331Z,9.22
2018-10-03T03:12:24.689Z,9.36
2018-10-03T03:14:54.906Z,9.27
2018-10-03T03:17:25.316Z,9.26
2018-10-03T03:19:55.721Z,9.32
2018-10-03T03:22:26.225Z,9.25
2018-10-03T03:24:56.717Z,9.38
2018-10-03T03:27:27.097Z,9.32
2018-10-03T03:29:57.573Z,9.37
2018-10-03T03:32:27.907Z,9.37
2018-10-03T03:34:58.329Z,9.40
2018-10-03T03:37:28.549Z,9.49
2018-10-03T03:39:58.968Z,9.54
2018-10-03T03:42:29.348Z,9.54
2018-10-03T03:44:59.740Z,9.59
2018-10-03T03:47:29.974Z,9.49
2018-10-03T03:50:00.364Z,9.64
2018-10-03T03:52:30.892Z,9.62
2018-10-03T03:55:01.267Z,9.50
2018-10-03T03:57:32.327Z,9.39
2018-10-03T04:00:02.735Z,9.46
2018-10-03T04:02:33.095Z,9.55
2018-10-03T04:05:03.293Z,9.43
2018-10-03T04:07:33.752Z,9.48
2018-10-03T04:10:04.310Z,9.48
2018-10-03T04:12:34.834Z,9.42
2018-10-03T04:15:05.438Z,9.58
2018-10-03T04:17:35.997Z,9.53
2018-10-03T04:20:06.689Z,9.44
2018-10-03T04:22:36.932Z,9.30
2018-10-03T04:25:07.325Z,9.32
2018-10-03T04:27:38.209Z,9.34
2018-10-03T04:30:08.520Z,9.26
2018-10-03T04:32:38.955Z,9.18
2018-10-03T04:35:09.301Z,9.30
2018-10-03T04:37:39.720Z,9.13
2018-10-03T04:40:10.120Z,9.04
2018-10-03T04:42:40.455Z,9.08
2018-10-03T04:45:10.747Z,9.01
2018-10-03T04:47:41.235Z,8.96
2018-10-03T04:50:11.631Z,8.85
2018-10-03T04:52:42.091Z,8.87
2018-10-03T04:55:12.372Z,9.01
2018-10-03T04:57:42.770Z,9.05
2018-10-03T05:00:13.168Z,9.03
2018-10-03T05:02:43.531Z,9.03
2018-10-03T05:05:13.809Z,8.99
2018-10-03T05:07:44.180Z,8.99
2018-10-03T05:10:14.583Z,9.09
2018-10-03T05:12:45.087Z,9.13
2018-10-03T05:17:44.693Z,9.26
2018-10-03T05:20:14.957Z,9.28
2018-10-03T05:22:45.291Z,9.21
2018-10-03T05:25:15.829Z,9.22
2018-10-03T05:27:46.248Z,9.32
2018-10-03T05:30:16.516Z,9.38
2018-10-03T05:32:46.919Z,9.43
2018-10-03T05:35:17.334Z,9.39
2018-10-03T05:37:47.920Z,9.37
2018-10-03T05:40:19.371Z,9.52
2018-10-03T05:42:49.739Z,9.46
2018-10-03T05:45:20.183Z,9.59
2018-10-03T05:47:50.946Z,9.82
2018-10-03T05:50:21.456Z,10.16
2018-10-03T05:52:51.815Z,10.07
2018-10-03T05:55:22.260Z,10.00
2018-10-03T05:57:52.568Z,9.89
2018-10-03T06:00:22.992Z,10.45
2018-10-03T06:02:53.378Z,11.34
2018-10-03T06:05:24.065Z,11.81
2018-10-03T06:07:54.297Z,12.29
2018-10-03T06:10:24.703Z,12.59
2018-10-03T06:12:55.094Z,11.56
2018-10-03T06:15:25.584Z,11.32
2018-10-03T06:17:55.979Z,11.18
2018-10-03T06:20:26.349Z,10.87
2018-10-03T06:22:56.687Z,10.90
2018-10-03T06:25:27.025Z,11.35
2018-10-03T06:27:57.446Z,12.64
2018-10-03T06:30:27.627Z,13.42
2018-10-03T06:32:58.007Z,14.19
2018-10-03T06:35:28.404Z,13.34
2018-10-03T06:37:58.880Z,12.45
2018-10-03T06:40:29.386Z,13.36
2018-10-03T06:42:59.623Z,14.15
2018-10-03T06:45:30.054Z,14.85
2018-10-03T06:48:01.238Z,15.11
2018-10-03T06:50:31.612Z,15.64
2018-10-03T06:53:01.943Z,15.64
2018-10-03T06:55:33.320Z,15.08
2018-10-03T06:58:03.731Z,15.53
2018-10-03T07:00:34.052Z,15.42
2018-10-03T07:03:04.457Z,16.04
2018-10-03T07:05:34.672Z,15.91
2018-10-03T07:08:05.133Z,15.84
2018-10-03T07:10:35.467Z,15.91
2018-10-03T07:13:06.205Z,16.26
2018-10-03T07:15:36.671Z,16.21
2018-10-03T07:18:07.062Z,16.24
2018-10-03T07:20:37.524Z,15.93
2018-10-03T07:23:07.997Z,16.10
2018-10-03T07:25:38.355Z,16.46
2018-10-03T07:28:08.605Z,16.78
2018-10-03T07:30:38.897Z,17.18
2018-10-03T07:33:09.637Z,17.55
2018-10-03T07:35:40.080Z,17.57
2018-10-03T07:38:10.551Z,17.48
2018-10-03T07:40:40.948Z,16.06
2018-10-03T07:43:11.408Z,15.82
2018-10-03T07:45:41.876Z,15.21
2018-10-03T07:48:12.286Z,15.43
2018-10-03T07:50:42.873Z,16.74
2018-10-03T07:53:13.336Z,15.80
2018-10-03T07:55:43.593Z,16.73
2018-10-03T07:58:14.088Z,17.07
2018-10-03T08:00:44.480Z,16.62
2018-10-03T08:03:15.747Z,16.76
2018-10-03T08:05:46.164Z,17.24
2018-10-03T08:08:16.827Z,17.12
2018-10-03T08:10:47.363Z,17.75
2018-10-03T08:13:17.806Z,18.55
2018-10-03T08:15:48.192Z,17.00
2018-10-03T08:18:18.642Z,15.55
2018-10-03T08:20:49.072Z,14.75
2018-10-03T08:23:19.463Z,14.18
2018-10-03T08:25:49.809Z,13.96
2018-10-03T08:28:20.142Z,14.66
2018-10-03T08:30:50.482Z,14.12
2018-10-03T08:33:20.937Z,14.09
2018-10-03T08:35:51.324Z,14.05
2018-10-03T08:38:21.688Z,13.95
2018-10-03T08:40:52.089Z,14.08
2018-10-03T08:43:22.563Z,14.55
2018-10-03T08:45:53.014Z,14.53
2018-10-03T08:48:23.417Z,13.99
2018-10-03T08:50:53.702Z,13.86
2018-10-03T08:53:24.000Z,13.97
2018-10-03T08:58:55.217Z,13.43
2018-10-03T09:01:25.520Z,13.41
2018-10-03T09:03:55.979Z,13.66
2018-10-03T09:06:26.479Z,13.64
2018-10-03T09:08:56.968Z,13.46
2018-10-03T09:11:27.518Z,13.23
2018-10-03T09:13:57.901Z,13.22
2018-10-03T09:16:28.400Z,13.16
2018-10-03T09:18:58.899Z,13.25
2018-10-03T09:21:29.215Z,13.00
2018-10-03T09:23:59.750Z,12.99
2018-10-03T09:26:30.139Z,13.00
2018-10-03T09:29:00.395Z,12.90
2018-10-03T09:31:30.860Z,12.85
2018-10-03T09:34:01.340Z,12.75
2018-10-03T09:36:31.753Z,12.68
2018-10-03T09:39:02.144Z,12.49
2018-10-03T09:41:32.492Z,12.28
2018-10-03T09:44:02.901Z,12.36
2018-10-03T09:46:33.348Z,12.32
2018-10-03T09:49:03.740Z,12.59
2018-10-03T09:51:34.057Z,13.23
2018-10-03T09:54:04.792Z,13.75
2018-10-03T09:56:35.511Z,14.11
2018-10-03T09:59:05.870Z,14.20
2018-10-03T10:01:36.310Z,14.39
2018-10-03T10:04:06.852Z,14.50
2018-10-03T10:06:37.257Z,14.64
2018-10-03T10:09:10.641Z,14.42
2018-10-03T10:11:41.400Z,14.53
2018-10-03T10:14:11.807Z,14.78
2018-10-03T10:16:42.233Z,14.61
2018-10-03T10:19:13.189Z,14.70
2018-10-03T10:21:43.730Z,14.62
2018-10-03T10:24:14.097Z,14.76
2018-10-03T10:26:44.420Z,14.77
2018-10-03T10:29:14.847Z,14.84
2018-10-03T10:31:45.236Z,14.61
2018-10-03T10:34:15.600Z,15.02
2018-10-03T10:36:45.999Z,15.55
2018-10-03T10:39:16.380Z,15.01
2018-10-03T10:41:46.707Z,14.90
2018-10-03T10:44:17.111Z,14.63
2018-10-03T10:46:47.634Z,14.55
2018-10-03T10:49:17.945Z,14.50
2018-10-03T10:51:48.176Z,14.45
2018-10-03T10:54:18.727Z,14.43
2018-10-03T10:56:49.221Z,14.52
2018-10-03T10:59:19.543Z,14.44
2018-10-03T11:01:49.886Z,14.20
2018-10-03T11:04:20.268Z,14.10
2018-10-03T11:06:50.641Z,14.12
2018-10-03T11:09:21.065Z,14.22
2018-10-03T11:11:51.367Z,14.37
2018-10-03T11:14:21.740Z,14.44
2018-10-03T11:16:52.700Z,14.82
2018-10-03T11:19:23.332Z,15.19
2018-10-03T11:21:53.840Z,15.14
2018-10-03T11:24:24.332Z,15.14
2018-10-03T11:26:54.477Z,15.22
2018-10-03T11:29:24.931Z,15.05
2018-10-03T11:31:55.326Z,14.86
2018-10-03T11:34:25.727Z,14.51
2018-10-03T11:36:56.232Z,14.23
2018-10-03T11:39:26.556Z,14.30
2018-10-03T11:41:56.976Z,14.02
2018-10-03T11:44:27.512Z,13.64
2018-10-03T11:46:58.024Z,13.34
2018-10-03T11:49:28.432Z,13.22
2018-10-03T11:51:58.696Z,13.09
2018-10-03T11:54:29.115Z,13.04
2018-10-03T11:56:59.455Z,13.61
2018-10-03T11:59:30.100Z,14.23
2018-10-03T12:02:00.311Z,14.36
2018-10-03T12:04:30.667Z,14.30
2018-10-03T12:07:01.080Z,14.00
2018-10-03T12:09:31.449Z,13.96
2018-10-03T12:12:01.932Z,13.93
2018-10-03T12:14:32.260Z,13.84
2018-10-03T12:17:02.568Z,13.64
2018-10-03T12:19:33.085Z,14.01
2018-10-03T12:22:03.664Z,14.11
2018-10-03T12:24:33.991Z,14.35
2018-10-03T12:27:04.419Z,14.47
2018-10-03T12:29:34.788Z,14.84
2018-10-03T12:32:05.379Z,15.14
2018-10-03T12:34:35.747Z,15.22
2018-10-03T12:37:06.290Z,15.17
2018-10-03T12:39:36.682Z,15.32
2018-10-03T12:42:07.073Z,15.37
2018-10-03T12:44:37.484Z,15.73
2018-10-03T12:47:08.070Z,16.02
2018-10-03T12:49:38.664Z,16.00
2018-10-03T12:52:09.305Z,15.99
2018-10-03T12:54:39.804Z,16.14
2018-10-03T12:57:10.629Z,15.86
2018-10-03T12:59:41.048Z,15.92
2018-10-03T13:02:11.374Z,15.68
2018-10-03T13:04:41.742Z,15.49
2018-10-03T13:07:12.228Z,15.68
2018-10-03T13:09:42.488Z,15.69
2018-10-03T13:12:12.866Z,15.42
2018-10-03T13:14:43.372Z,15.06
2018-10-03T13:17:13.879Z,14.79
2018-10-03T13:19:44.337Z,14.62
2018-10-03T13:22:14.592Z,14.33
2018-10-03T13:24:45.209Z,14.13
2018-10-03T13:27:15.560Z,14.16
2018-10-03T13:29:46.035Z,14.26
2018-10-03T13:32:16.471Z,14.64
2018-10-03T13:34:46.709Z,15.00
2018-10-03T13:37:17.063Z,14.98
2018-10-03T13:39:47.464Z,14.99
2018-10-03T13:42:17.864Z,14.83
2018-10-03T13:44:47.980Z,14.82
2018-10-03T13:47:18.375Z,14.97
2018-10-03T13:49:48.800Z,15.06
2018-10-03T13:52:19.803Z,15.34
2018-10-03T13:54:50.641Z,15.23
2018-10-03T13:57:24.736Z,15.28
2018-10-03T13:59:55.800Z,15.39
2018-10-03T14:02:26.634Z,15.56
2018-10-03T14:04:57.380Z,15.58
2018-10-03T14:07:27.868Z,15.64
2018-10-03T14:09:58.747Z,15.42
2018-10-03T14:12:29.411Z,15.22
2018-10-03T14:14:59.823Z,15.11
2018-10-03T14:17:30.299Z,14.71
2018-10-03T14:20:00.819Z,14.47
2018-10-03T14:22:31.295Z,14.41
2018-10-03T14:25:01.884Z,14.35
2018-10-03T14:27:32.355Z,14.29
2018-10-03T14:30:02.858Z,14.50
2018-10-03T14:32:33.298Z,14.73
2018-10-03T14:35:03.751Z,14.66
2018-10-03T14:37:34.201Z,14.47
2018-10-03T14:40:04.879Z,14.52
2018-10-03T14:42:35.250Z,14.49
2018-10-03T14:45:05.664Z,14.41
2018-10-03T14:47:35.988Z,14.28
2018-10-03T14:50:06.819Z,14.13
2018-10-03T14:52:38.263Z,13.92
2018-10-03T14:55:08.777Z,13.91
2018-10-03T14:57:39.152Z,13.85
2018-10-03T15:00:10.419Z,13.77
2018-10-03T15:02:40.676Z,13.68
2018-10-03T15:05:11.233Z,13.75
2018-10-03T15:07:41.687Z,13.66
2018-10-03T15:10:12.300Z,13.77
2018-10-03T15:12:42.835Z,13.86
2018-10-03T15:15:13.346Z,13.63
2018-10-03T15:17:43.793Z,13.85
2018-10-03T15:20:14.248Z,13.86
2018-10-03T15:22:44.723Z,13.71
2018-10-03T15:25:15.266Z,13.67
2018-10-03T15:27:45.823Z,13.51
2018-10-03T15:30:16.150Z,13.45
2018-10-03T15:32:46.761Z,13.40
2018-10-03T15:35:17.287Z,13.28
2018-10-03T15:37:47.824Z,13.23
2018-10-03T15:40:18.257Z,13.19
2018-10-03T15:42:48.600Z,13.12
2018-10-03T15:45:19.195Z,13.09
2018-10-03T15:47:49.657Z,13.00
2018-10-03T15:50:20.071Z,12.94
2018-10-03T15:52:50.413Z,13.00
2018-10-03T15:55:21.014Z,13.01
2018-10-03T15:57:51.373Z,12.94
2018-10-03T16:00:21.864Z,12.96
2018-10-03T16:02:52.352Z,12.98
2018-10-03T16:05:22.972Z,13.07
2018-10-03T16:07:53.317Z,13.23
2018-10-03T16:10:23.692Z,13.34
2018-10-03T16:12:54.215Z,13.31
2018-10-03T16:15:24.873Z,13.19
2018-10-03T16:17:55.424Z,13.09
2018-10-03T16:20:25.840Z,12.98
2018-10-03T16:22:56.087Z,12.84
2018-10-03T16:25:26.481Z,12.78
2018-10-03T16:27:56.847Z,12.83
2018-10-03T16:30:27.149Z,12.81
2018-10-03T16:32:57.496Z,12.85
2018-10-03T16:35:27.953Z,12.80
2018-10-03T16:37:58.465Z,12.71
2018-10-03T16:40:35.065Z,12.77
2018-10-03T16:43:08.020Z,12.81
2018-10-03T16:45:38.484Z,12.63
2018-10-03T16:48:09.466Z,12.50
2018-10-03T16:50:39.840Z,12.36
2018-10-03T16:53:10.236Z,12.25
2018-10-03T16:55:40.501Z,12.15
2018-10-03T16:58:10.871Z,12.03
2018-10-03T17:00:41.446Z,11.90
2018-10-03T17:03:11.780Z,11.81
2018-10-03T17:05:42.259Z,11.67
2018-10-03T17:08:12.630Z,11.62
2018-10-03T17:10:44.231Z,11.57
2018-10-03T17:13:14.705Z,11.42
2018-10-03T17:15:45.193Z,11.44
2018-10-03T17:18:15.451Z,11.35
2018-10-03T17:20:45.919Z,11.34
2018-10-03T17:23:16.300Z,11.25
2018-10-03T17:25:46.812Z,11.30
2018-10-03T17:28:17.288Z,11.14
2018-10-03T17:30:47.639Z,11.09
2018-10-03T17:33:18.029Z,11.07
2018-10-03T17:35:48.512Z,10.89
2018-10-03T17:38:19.015Z,10.90
2018-10-03T17:40:49.559Z,10.83
2018-10-03T17:43:19.832Z,10.73
2018-10-03T17:45:50.335Z,10.62
2018-10-03T17:48:20.930Z,10.55
2018-10-03T17:50:51.312Z,10.44
2018-10-03T17:53:21.691Z,10.29
2018-10-03T17:55:52.026Z,10.34
2018-10-03T17:58:22.316Z,10.28
2018-10-03T18:00:52.797Z,10.18
2018-10-03T18:03:23.238Z,10.15
2018-10-03T18:05:53.453Z,10.09
2018-10-03T18:08:23.741Z,10.12
2018-10-03T18:10:54.252Z,10.09
2018-10-03T18:13:25.064Z,10.08
2018-10-03T18:15:55.451Z,10.03
2018-10-03T18:18:25.807Z,10.10
2018-10-03T18:20:56.268Z,10.19
2018-10-03T18:23:26.867Z,10.22
2018-10-03T18:25:57.456Z,10.13
2018-10-03T18:28:28.008Z,10.19
2018-10-03T18:30:58.547Z,10.15
2018-10-03T18:33:28.804Z,10.13
2018-10-03T18:35:59.385Z,10.03
2018-10-03T18:38:29.933Z,9.94
2018-10-03T18:41:00.527Z,9.93
2018-10-03T18:43:31.036Z,9.95
2018-10-03T18:46:01.599Z,9.88
2018-10-03T18:48:32.188Z,9.96
2018-10-03T18:51:02.515Z,9.92
2018-10-03T18:53:33.037Z,9.91
2018-10-03T18:56:03.469Z,9.83
2018-10-03T18:58:33.873Z,9.91
2018-10-03T19:01:04.587Z,9.87
2018-10-03T19:03:35.002Z,9.86
2018-10-03T19:06:05.471Z,9.87
2018-10-03T19:08:35.938Z,9.86
2018-10-03T19:11:06.452Z,9.94
2018-10-03T19:13:37.031Z,9.89
2018-10-03T19:16:07.472Z,9.98
2018-10-03T19:18:37.980Z,9.93
2018-10-03T19:21:08.751Z,10.07
2018-10-03T19:23:39.248Z,10.00
2018-10-03T19:26:09.568Z,10.05
2018-10-03T19:28:39.923Z,10.15
2018-10-03T19:31:10.375Z,10.20
2018-10-03T19:33:40.767Z,10.28
2018-10-03T19:36:11.068Z,10.32
2018-10-03T19:38:41.415Z,10.33
2018-10-03T19:41:11.884Z,10.29
2018-10-03T19:43:42.359Z,10.29
2018-10-03T19:46:12.753Z,10.29
2018-10-03T19:48:43.252Z,10.19
2018-10-03T19:51:13.707Z,10.24
2018-10-03T19:53:44.496Z,10.22
2018-10-03T19:56:15.044Z,10.20
2018-10-03T19:58:45.479Z,10.20
2018-10-03T20:01:16.057Z,10.24
2018-10-03T20:03:46.563Z,10.15
2018-10-03T20:06:17.020Z,10.12
2018-10-03T20:08:47.406Z,10.08
2018-10-03T20:11:17.790Z,10.08
2018-10-03T20:13:48.181Z,10.01
2018-10-03T20:16:18.744Z,10.12
2018-10-03T20:18:48.988Z,10.20
2018-10-03T20:21:19.511Z,10.16
2018-10-03T20:23:49.983Z,10.11
2018-10-03T20:26:20.380Z,10.13
2018-10-03T20:28:50.856Z,10.09
2018-10-03T20:31:21.222Z,10.12
2018-10-03T20:33:51.697Z,10.06
2018-10-03T20:36:23.080Z,10.02
2018-10-03T20:38:53.438Z,9.87
2018-10-03T20:41:23.886Z,9.80
2018-10-03T20:43:54.427Z,9.71
2018-10-03T20:46:24.841Z,9.64
2018-10-03T20:48:55.211Z,9.55
2018-10-03T20:51:25.931Z,9.47
2018-10-03T20:53:56.300Z,9.33
2018-10-03T20:56:26.983Z,9.24
2018-10-03T20:58:57.448Z,9.20
2018-10-03T21:01:27.810Z,9.11
2018-10-03T21:03:58.912Z,9.03
2018-10-03T21:06:29.467Z,8.96
2018-10-03T21:08:59.800Z,8.87
2018-10-03T21:11:30.268Z,8.82
2018-10-03T21:14:00.761Z,8.75
2018-10-03T21:16:31.305Z,8.65
2018-10-03T21:19:01.630Z,8.59
2018-10-03T21:21:32.250Z,8.56
2018-10-03T21:24:02.455Z,8.50
2018-10-03T21:26:32.948Z,8.43
2018-10-03T21:29:03.450Z,8.41
2018-10-03T21:31:33.925Z,8.39
2018-10-03T21:34:04.502Z,8.35
2018-10-03T21:36:35.860Z,8.37
2018-10-03T21:39:07.985Z,8.36
2018-10-03T21:41:38.496Z,8.32
2018-10-03T21:44:09.008Z,8.29
2018-10-03T21:46:39.373Z,8.32
2018-10-03T21:49:09.714Z,8.35
2018-10-03T21:51:40.223Z,8.29
2018-10-03T21:54:10.603Z,8.28
2018-10-03T21:56:41.193Z,8.36
2018-10-03T21:59:11.436Z,8.31
2018-10-03T22:01:42.158Z,8.28
2018-10-03T22:04:12.627Z,8.38
2018-10-03T22:06:43.108Z,8.34
2018-10-03T22:09:13.393Z,8.40
2018-10-03T22:11:43.978Z,8.38
2018-10-03T22:14:14.432Z,8.35
2018-10-03T22:16:44.935Z,8.27
2018-10-03T22:19:15.342Z,8.22
2018-10-03T22:21:45.711Z,8.18
2018-10-03T22:24:16.178Z,8.18
2018-10-03T22:26:46.567Z,8.07
2018-10-03T22:29:16.955Z,8.02
2018-10-03T22:31:47.280Z,8.00
2018-10-03T22:34:17.703Z,8.00
2018-10-03T22:36:48.183Z,8.02
2018-10-03T22:39:18.572Z,8.07
2018-10-03T22:41:49.107Z,8.03
2018-10-03T22:44:19.503Z,8.16
2018-10-03T22:46:49.962Z,8.17
2018-10-03T22:49:20.421Z,8.26
2018-10-03T22:51:50.627Z,8.16
2018-10-03T22:54:21.072Z,8.16
2018-10-03T22:56:51.612Z,8.18
2018-10-03T22:59:22.004Z,8.12
2018-10-03T23:01:52.268Z,8.14
2018-10-03T23:04:22.592Z,8.07
2018-10-03T23:06:53.119Z,8.05
2018-10-03T23:09:23.545Z,7.94
2018-10-03T23:11:54.120Z,7.93
2018-10-03T23:14:24.372Z,7.92
2018-10-03T23:16:54.927Z,8.02
2018-10-03T23:19:25.428Z,8.02
2018-10-03T23:21:55.939Z,8.03
2018-10-03T23:24:26.541Z,7.97
2018-10-03T23:26:56.909Z,8.06
2018-10-03T23:29:27.276Z,8.03
2018-10-03T23:31:57.630Z,7.97
2018-10-03T23:34:28.661Z,7.92
2018-10-03T23:36:59.086Z,7.84
2018-10-03T23:39:29.594Z,7.74
2018-10-03T23:42:00.243Z,7.73
2018-10-03T23:44:30.543Z,7.64
2018-10-03T23:47:01.046Z,7.63
2018-10-03T23:49:31.409Z,7.62
2018-10-03T23:52:01.908Z,7.60
2018-10-03T23:54:32.425Z,7.57
2018-10-03T23:57:02.792Z,7.60
2018-10-03T23:59:33.110Z,7.60
